createdAt,value
2023-03-05T00:00:26.377Z,3.80
2023-03-05T00:01:35.642Z,3.00
2023-03-05T00:02:38.489Z,3.00
2023-03-05T00:03:41.261Z,3.00
2023-03-05T00:04:44.066Z,2.27
2023-03-05T00:05:46.751Z,3.00
2023-03-05T00:06:49.916Z,3.60
2023-03-05T00:07:52.606Z,1.40
2023-03-05T00:08:56.329Z,2.60
2023-03-05T00:10:00.685Z,1.50
2023-03-05T00:11:05.695Z,2.80
2023-03-05T00:12:08.934Z,3.00
2023-03-05T00:13:12.709Z,3.20
2023-03-05T00:14:15.333Z,3.30
2023-03-05T00:15:18.296Z,2.50
2023-03-05T00:16:21.597Z,2.90
2023-03-05T00:17:24.458Z,2.30
2023-03-05T00:18:27.161Z,2.80
2023-03-05T00:19:30.038Z,1.20
2023-03-05T00:20:35.525Z,2.27
2023-03-05T00:21:39.899Z,2.00
2023-03-05T00:22:42.932Z,1.80
2023-03-05T00:23:45.541Z,2.40
2023-03-05T00:24:51.486Z,3.09
2023-03-05T00:25:54.283Z,2.00
2023-03-05T00:26:57.036Z,2.45
2023-03-05T00:27:59.543Z,2.50
2023-03-05T00:29:03.496Z,1.60
2023-03-05T00:30:07.954Z,2.00
2023-03-05T00:31:12.195Z,1.50
2023-03-05T00:32:14.889Z,1.64
2023-03-05T00:33:17.858Z,1.55
2023-03-05T00:34:20.519Z,1.10
2023-03-05T00:35:23.370Z,1.40
2023-03-05T00:36:26.065Z,1.82
2023-03-05T00:37:28.525Z,1.50
2023-03-05T00:38:31.001Z,1.40
2023-03-05T00:39:33.526Z,2.50
2023-03-05T00:41:50.852Z,2.00
2023-03-05T00:42:54.096Z,1.50
2023-03-05T00:43:56.769Z,1.90
2023-03-05T00:44:59.501Z,0.73
2023-03-05T00:46:03.507Z,1.18
2023-03-05T00:47:07.682Z,1.30
2023-03-05T00:48:11.941Z,1.60
2023-03-05T00:49:14.697Z,1.20
2023-03-05T00:50:18.276Z,1.90
2023-03-05T00:51:21.316Z,1.80
2023-03-05T00:52:24.134Z,0.73
2023-03-05T00:53:26.964Z,1.40
2023-03-05T00:54:30.580Z,0.73
2023-03-05T00:55:35.216Z,0.90
2023-03-05T00:56:37.975Z,1.80
2023-03-05T00:57:40.909Z,1.60
2023-03-05T00:58:43.509Z,0.91
2023-03-05T00:59:47.230Z,0.00
2023-03-05T01:00:50.138Z,1.10
2023-03-05T01:01:53.123Z,1.10
2023-03-05T01:02:55.917Z,0.80
2023-03-05T01:04:01.462Z,1.82
2023-03-05T01:05:04.796Z,1.20
2023-03-05T01:06:09.629Z,1.50
2023-03-05T01:07:13.436Z,0.60
2023-03-05T01:08:16.372Z,1.40
2023-03-05T01:09:19.004Z,0.80
2023-03-05T01:10:23.370Z,0.60
2023-03-05T01:11:25.993Z,0.80
2023-03-05T01:12:28.539Z,0.80
2023-03-05T01:13:31.783Z,0.50
2023-03-05T01:14:36.329Z,0.80
2023-03-05T01:15:39.033Z,0.90
2023-03-05T01:16:42.476Z,0.60
2023-03-05T01:17:46.198Z,1.00
2023-03-05T01:18:49.138Z,1.40
2023-03-05T01:19:52.240Z,1.30
2023-03-05T01:20:57.022Z,1.40
2023-03-05T01:21:59.536Z,0.60
2023-03-05T01:23:02.917Z,0.50
2023-03-05T01:24:06.413Z,0.00
2023-03-05T01:25:09.373Z,0.70
2023-03-05T01:26:13.009Z,1.30
2023-03-05T01:27:16.413Z,1.70
2023-03-05T01:28:18.953Z,1.10
2023-03-05T01:29:21.388Z,0.80
2023-03-05T01:30:24.476Z,0.80
2023-03-05T01:31:27.185Z,1.40
2023-03-05T01:32:29.749Z,0.91
2023-03-05T01:33:32.410Z,0.70
2023-03-05T01:34:37.177Z,1.00
2023-03-05T01:35:41.218Z,1.20
2023-03-05T01:36:43.975Z,1.00
2023-03-05T01:37:47.200Z,1.40
2023-03-05T01:38:50.612Z,1.40
2023-03-05T01:39:56.240Z,1.80
2023-03-05T01:40:59.480Z,0.80
2023-03-05T01:42:02.965Z,1.00
2023-03-05T01:43:12.765Z,1.20
2023-03-05T01:45:38.125Z,0.90
2023-03-05T01:46:42.002Z,0.80
2023-03-05T01:47:44.784Z,1.00
2023-03-05T01:48:51.247Z,1.10
2023-03-05T01:49:53.918Z,0.70
2023-03-05T01:50:56.581Z,1.00
2023-03-05T01:52:11.168Z,1.60
2023-03-05T01:53:14.783Z,0.80
2023-03-05T01:54:18.284Z,1.00
2023-03-05T01:55:23.270Z,1.00
2023-03-05T01:56:27.824Z,0.60
2023-03-05T01:57:36.159Z,1.00
2023-03-05T01:58:39.322Z,0.80
2023-03-05T01:59:42.973Z,1.00
2023-03-05T02:00:47.691Z,1.00
2023-03-05T02:01:51.742Z,0.60
2023-03-05T02:02:54.710Z,0.80
2023-03-05T02:03:57.570Z,0.40
2023-03-05T02:05:06.048Z,0.30
2023-03-05T02:06:09.590Z,0.40
2023-03-05T02:07:12.688Z,0.50
2023-03-05T02:08:17.309Z,0.90
2023-03-05T02:09:23.491Z,0.70
2023-03-05T02:11:42.793Z,1.00
2023-03-05T02:12:45.265Z,0.60
2023-03-05T02:13:47.720Z,0.80
2023-03-05T02:14:53.724Z,1.90
2023-03-05T02:15:57.714Z,0.80
2023-03-05T02:17:01.202Z,1.60
2023-03-05T02:18:04.681Z,0.09
2023-03-05T02:19:10.247Z,0.60
2023-03-05T02:21:39.264Z,0.40
2023-03-05T02:22:41.850Z,0.50
2023-03-05T02:23:44.945Z,0.60
2023-03-05T02:24:47.525Z,0.70
2023-03-05T02:25:50.399Z,0.70
2023-03-05T02:26:53.134Z,0.00
2023-03-05T02:28:02.038Z,1.20
2023-03-05T02:29:04.965Z,1.40
2023-03-05T02:30:09.051Z,0.70
2023-03-05T02:31:18.851Z,0.50
2023-03-05T02:32:21.699Z,0.30
2023-03-05T02:33:24.528Z,0.80
2023-03-05T02:34:27.596Z,0.45
2023-03-05T02:35:31.009Z,0.10
2023-03-05T02:36:34.393Z,0.60
2023-03-05T02:37:37.071Z,0.50
2023-03-05T02:38:40.031Z,0.10
2023-03-05T02:39:42.557Z,0.00
2023-03-05T02:40:47.045Z,0.00
2023-03-05T02:41:49.898Z,0.60
2023-03-05T02:42:52.562Z,0.80
2023-03-05T02:43:55.317Z,0.80
2023-03-05T02:44:58.596Z,0.00
2023-03-05T02:46:01.951Z,0.00
2023-03-05T02:47:05.213Z,0.80
2023-03-05T02:48:08.572Z,0.50
2023-03-05T02:49:11.713Z,0.90
2023-03-05T02:50:14.448Z,0.45
2023-03-05T02:51:18.118Z,0.70
2023-03-05T02:52:22.727Z,0.00
2023-03-05T02:53:26.520Z,0.30
2023-03-05T02:54:29.527Z,0.20
2023-03-05T02:55:32.234Z,0.00
2023-03-05T02:56:37.736Z,0.00
2023-03-05T02:57:41.542Z,0.00
2023-03-05T02:58:44.479Z,0.40
2023-03-05T02:59:47.395Z,0.40
2023-03-05T03:00:50.169Z,0.20
2023-03-05T03:01:52.646Z,0.90
2023-03-05T03:02:55.596Z,0.30
2023-03-05T03:03:59.296Z,0.00
2023-03-05T03:05:02.057Z,0.50
2023-03-05T03:06:06.443Z,0.10
2023-03-05T03:07:10.598Z,0.00
2023-03-05T03:08:14.536Z,0.10
2023-03-05T03:09:17.034Z,0.00
2023-03-05T03:10:19.782Z,0.00
2023-03-05T03:11:22.303Z,0.80
2023-03-05T03:12:24.921Z,0.20
2023-03-05T03:13:27.773Z,0.20
2023-03-05T03:14:35.250Z,0.00
2023-03-05T03:15:39.836Z,0.10
2023-03-05T03:16:42.684Z,0.00
2023-03-05T03:17:45.830Z,0.09
2023-03-05T03:18:48.661Z,0.00
2023-03-05T03:19:51.293Z,0.45
2023-03-05T03:20:54.459Z,0.00
2023-03-05T03:21:57.451Z,0.36
2023-03-05T03:23:00.425Z,0.00
2023-03-05T03:24:04.328Z,0.00
2023-03-05T03:25:09.510Z,0.50
2023-03-05T03:26:12.007Z,0.40
2023-03-05T03:27:15.572Z,0.20
2023-03-05T03:28:18.301Z,0.09
2023-03-05T03:29:21.016Z,0.36
2023-03-05T03:30:23.733Z,0.00
2023-03-05T03:31:26.998Z,0.00
2023-03-05T03:32:30.516Z,0.00
2023-03-05T03:33:33.228Z,0.20
2023-03-05T03:34:35.904Z,0.10
2023-03-05T03:35:38.558Z,0.00
2023-03-05T03:36:42.765Z,0.00
2023-03-05T03:37:45.268Z,0.00
2023-03-05T03:38:48.534Z,0.40
2023-03-05T03:39:51.627Z,0.00
2023-03-05T03:40:54.429Z,0.00
2023-03-05T03:41:57.167Z,0.00
2023-03-05T03:42:59.715Z,0.00
2023-03-05T03:44:05.226Z,0.00
2023-03-05T03:45:08.744Z,0.00
2023-03-05T03:46:12.991Z,0.00
2023-03-05T03:47:16.386Z,0.00
2023-03-05T03:48:18.969Z,0.50
2023-03-05T03:49:23.424Z,0.00
2023-03-05T03:50:27.383Z,0.00
2023-03-05T03:51:31.163Z,0.00
2023-03-05T03:52:34.941Z,0.00
2023-03-05T03:53:37.572Z,0.00
2023-03-05T03:54:40.391Z,0.00
2023-03-05T03:55:43.394Z,0.09
2023-03-05T03:56:46.117Z,0.00
2023-03-05T03:57:49.141Z,0.40
2023-03-05T03:58:53.213Z,0.00
2023-03-05T03:59:56.187Z,0.80
2023-03-05T04:00:58.809Z,0.00
2023-03-05T04:02:01.306Z,0.40
2023-03-05T04:03:04.531Z,0.00
2023-03-05T04:04:07.329Z,0.00
2023-03-05T04:05:10.623Z,0.20
2023-03-05T04:06:13.642Z,0.00
2023-03-05T04:07:17.233Z,0.00
2023-03-05T04:08:20.377Z,0.00
2023-03-05T04:09:22.940Z,0.50
2023-03-05T04:10:26.243Z,0.45
2023-03-05T04:11:28.726Z,0.00
2023-03-05T04:12:31.258Z,0.00
2023-03-05T04:13:33.492Z,0.00
2023-03-05T04:14:36.020Z,0.00
2023-03-05T04:15:38.559Z,0.10
2023-03-05T04:16:43.883Z,0.00
2023-03-05T04:17:46.665Z,0.00
2023-03-05T04:18:50.519Z,0.00
2023-03-05T04:19:53.654Z,0.00
2023-03-05T04:20:56.370Z,0.00
2023-03-05T04:22:00.025Z,0.00
2023-03-05T04:23:04.230Z,0.00
2023-03-05T04:24:07.753Z,0.00
2023-03-05T04:25:10.525Z,0.00
2023-03-05T04:26:13.282Z,0.00
2023-03-05T04:27:15.855Z,0.00
2023-03-05T04:28:18.387Z,0.00
2023-03-05T04:29:21.438Z,0.00
2023-03-05T04:30:23.917Z,0.00
2023-03-05T04:31:26.820Z,0.00
2023-03-05T04:32:30.337Z,0.00
2023-03-05T04:33:33.489Z,0.00
2023-03-05T04:34:38.970Z,0.40
2023-03-05T04:35:41.903Z,0.00
2023-03-05T04:36:44.704Z,0.00
2023-03-05T04:37:47.370Z,0.00
2023-03-05T04:38:49.942Z,0.00
2023-03-05T04:39:52.700Z,0.70
2023-03-05T04:40:55.724Z,0.18
2023-03-05T04:41:58.209Z,0.50
2023-03-05T04:43:00.828Z,0.20
2023-03-05T04:44:04.508Z,0.70
2023-03-05T04:45:10.169Z,0.00
2023-03-05T04:46:12.731Z,0.10
2023-03-05T04:47:15.583Z,0.20
2023-03-05T04:48:19.218Z,0.40
2023-03-05T04:49:22.303Z,0.30
2023-03-05T04:50:25.536Z,0.30
2023-03-05T04:51:28.143Z,0.00
2023-03-05T04:52:30.863Z,0.00
2023-03-05T04:53:33.775Z,0.60
2023-03-05T04:54:36.323Z,0.00
2023-03-05T04:55:38.793Z,0.20
2023-03-05T04:56:42.454Z,0.50
2023-03-05T04:57:45.025Z,0.90
2023-03-05T04:58:48.272Z,0.50
2023-03-05T04:59:51.278Z,0.00
2023-03-05T05:00:53.957Z,0.10
2023-03-05T05:01:57.231Z,0.30
2023-03-05T05:03:00.012Z,0.30
2023-03-05T05:04:02.981Z,0.00
2023-03-05T05:05:06.189Z,0.20
2023-03-05T05:06:09.560Z,0.00
2023-03-05T05:07:12.371Z,0.20
2023-03-05T05:08:16.999Z,0.20
2023-03-05T05:09:19.628Z,0.20
2023-03-05T05:10:22.381Z,0.00
2023-03-05T05:11:25.077Z,0.60
2023-03-05T05:12:30.530Z,0.40
2023-03-05T05:13:33.841Z,0.10
2023-03-05T05:14:37.387Z,1.00
2023-03-05T05:15:41.219Z,0.70
2023-03-05T05:16:43.828Z,0.80
2023-03-05T05:17:46.609Z,0.60
2023-03-05T05:18:49.217Z,0.18
2023-03-05T05:19:51.660Z,0.80
2023-03-05T05:20:54.686Z,0.89
2023-03-05T05:21:57.743Z,1.30
2023-03-05T05:23:00.493Z,0.30
2023-03-05T05:24:04.073Z,0.27
2023-03-05T05:25:07.460Z,1.70
2023-03-05T05:26:12.282Z,0.70
2023-03-05T05:27:15.710Z,0.20
2023-03-05T05:28:18.478Z,0.90
2023-03-05T05:29:22.159Z,0.73
2023-03-05T05:30:24.782Z,0.50
2023-03-05T05:31:27.416Z,0.73
2023-03-05T05:32:30.034Z,0.80
2023-03-05T05:33:32.351Z,0.80
2023-03-05T05:34:36.287Z,0.80
2023-03-05T05:35:40.928Z,1.40
2023-03-05T05:36:44.483Z,1.00
2023-03-05T05:37:47.142Z,1.00
2023-03-05T05:38:52.021Z,0.64
2023-03-05T05:39:54.551Z,0.60
2023-03-05T05:41:08.619Z,1.09
2023-03-05T05:42:11.614Z,0.90
2023-03-05T05:43:13.984Z,0.90
2023-03-05T05:44:16.370Z,1.10
2023-03-05T05:45:19.102Z,1.20
2023-03-05T05:46:22.246Z,0.64
2023-03-05T05:47:25.911Z,1.40
2023-03-05T05:48:29.816Z,1.00
2023-03-05T05:49:32.260Z,1.00
2023-03-05T05:50:35.136Z,0.73
2023-03-05T05:51:37.820Z,1.10
2023-03-05T05:52:41.155Z,1.30
2023-03-05T05:53:43.973Z,1.40
2023-03-05T05:54:46.451Z,0.60
2023-03-05T05:55:50.107Z,2.10
2023-03-05T05:56:53.581Z,2.60
2023-03-05T05:57:56.310Z,1.20
2023-03-05T05:58:59.304Z,0.90
2023-03-05T06:00:03.086Z,1.27
2023-03-05T06:01:24.945Z,1.10
2023-03-05T06:02:27.544Z,1.60
2023-03-05T06:03:32.339Z,1.10
2023-03-05T06:04:35.543Z,1.27
2023-03-05T06:05:38.045Z,0.60
2023-03-05T06:06:41.004Z,0.73
2023-03-05T06:07:44.877Z,1.10
2023-03-05T06:08:47.626Z,1.80
2023-03-05T06:09:50.316Z,1.55
2023-03-05T06:10:55.845Z,1.40
2023-03-05T06:11:59.775Z,1.80
2023-03-05T06:13:02.600Z,1.50
2023-03-05T06:14:06.921Z,1.50
2023-03-05T06:15:10.608Z,2.20
2023-03-05T06:17:31.056Z,1.10
2023-03-05T06:18:35.018Z,3.20
2023-03-05T06:19:37.758Z,2.55
2023-03-05T06:20:41.700Z,1.10
2023-03-05T06:21:44.465Z,1.70
2023-03-05T06:22:47.432Z,2.45
2023-03-05T06:23:50.041Z,1.70
2023-03-05T06:24:53.746Z,1.64
2023-03-05T06:26:00.640Z,1.80
2023-03-05T06:27:03.988Z,1.70
2023-03-05T06:28:06.611Z,1.90
2023-03-05T06:29:09.076Z,1.10
2023-03-05T06:30:12.909Z,1.90
2023-03-05T06:31:17.366Z,2.60
2023-03-05T06:32:20.861Z,2.60
2023-03-05T06:33:24.605Z,2.00
2023-03-05T06:34:28.465Z,1.50
2023-03-05T06:35:32.110Z,2.00
2023-03-05T06:36:36.563Z,1.90
2023-03-05T06:37:38.965Z,1.10
2023-03-05T06:38:42.788Z,2.10
2023-03-05T06:39:45.419Z,1.30
2023-03-05T06:40:48.849Z,2.30
2023-03-05T06:41:51.659Z,2.70
2023-03-05T06:42:54.317Z,2.50
2023-03-05T06:43:59.396Z,2.20
2023-03-05T06:45:02.087Z,2.60
2023-03-05T06:46:07.718Z,1.30
2023-03-05T06:47:10.535Z,2.10
2023-03-05T06:48:13.288Z,3.45
2023-03-05T06:49:15.894Z,2.00
2023-03-05T06:50:20.374Z,1.90
2023-03-05T06:51:33.612Z,2.10
2023-03-05T06:52:38.027Z,2.80
2023-03-05T06:53:41.858Z,2.20
2023-03-05T06:54:45.598Z,1.70
2023-03-05T06:55:49.106Z,2.30
2023-03-05T06:56:52.253Z,2.90
2023-03-05T06:57:55.529Z,3.40
2023-03-05T06:58:58.643Z,2.90
2023-03-05T07:00:02.210Z,3.30
2023-03-05T07:01:06.684Z,4.20
2023-03-05T07:02:10.885Z,3.80
2023-03-05T07:03:14.974Z,4.30
2023-03-05T07:04:17.698Z,3.20
2023-03-05T07:05:20.170Z,4.10
2023-03-05T07:06:23.994Z,4.09
2023-03-05T07:07:27.578Z,3.40
2023-03-05T07:08:31.655Z,4.50
2023-03-05T07:09:34.584Z,4.70
2023-03-05T07:10:41.822Z,4.80
2023-03-05T07:11:45.190Z,5.00
2023-03-05T07:12:47.813Z,4.30
2023-03-05T07:13:50.888Z,6.40
2023-03-05T07:14:53.719Z,5.50
2023-03-05T07:15:57.477Z,6.18
2023-03-05T07:17:00.235Z,7.20
2023-03-05T07:18:04.105Z,6.20
2023-03-05T07:19:08.576Z,6.30
2023-03-05T07:20:14.305Z,5.40
2023-03-05T07:21:19.145Z,6.30
2023-03-05T07:22:21.931Z,6.80
2023-03-05T07:23:24.508Z,6.90
2023-03-05T07:24:28.908Z,6.80
2023-03-05T07:25:31.505Z,6.10
2023-03-05T07:26:34.141Z,6.50
2023-03-05T07:27:38.356Z,8.00
2023-03-05T07:28:42.249Z,8.40
2023-03-05T07:29:45.849Z,6.90
2023-03-05T07:30:59.749Z,7.40
2023-03-05T07:32:03.657Z,6.30
2023-03-05T07:33:06.776Z,8.90
2023-03-05T07:34:09.534Z,10.20
2023-03-05T07:35:11.979Z,9.30
2023-03-05T07:36:15.042Z,8.20
2023-03-05T07:37:17.678Z,8.00
2023-03-05T07:38:20.384Z,8.60
2023-03-05T07:39:23.021Z,7.60
2023-03-05T07:40:26.784Z,7.60
2023-03-05T07:41:29.799Z,8.00
2023-03-05T07:42:33.142Z,8.30
2023-03-05T07:43:38.877Z,8.10
2023-03-05T07:44:41.770Z,8.50
2023-03-05T07:45:45.093Z,8.70
2023-03-05T07:46:48.385Z,7.90
2023-03-05T07:47:52.649Z,6.80
2023-03-05T07:48:55.752Z,7.80
2023-03-05T07:49:58.464Z,8.36
2023-03-05T07:52:19.584Z,8.60
2023-03-05T07:53:25.632Z,11.30
2023-03-05T07:54:36.594Z,10.60
2023-03-05T07:55:43.482Z,10.60
2023-03-05T07:56:46.146Z,10.90
2023-03-05T07:57:50.638Z,13.00
2023-03-05T07:58:53.681Z,10.40
2023-03-05T07:59:57.429Z,12.73
2023-03-05T08:00:59.957Z,13.20
2023-03-05T08:02:02.426Z,12.10
2023-03-05T08:03:06.655Z,12.80
2023-03-05T08:04:11.077Z,10.40
2023-03-05T08:05:14.068Z,9.60
2023-03-05T08:06:16.947Z,11.73
2023-03-05T08:07:19.346Z,7.18
2023-03-05T08:08:22.886Z,8.40
2023-03-05T08:09:25.712Z,9.00
2023-03-05T08:10:29.228Z,7.09
2023-03-05T08:11:31.958Z,6.80
2023-03-05T08:12:34.618Z,8.70
2023-03-05T08:13:37.626Z,5.91
2023-03-05T08:14:40.782Z,5.10
2023-03-05T08:15:43.166Z,6.20
2023-03-05T08:16:48.254Z,6.10
2023-03-05T08:17:50.430Z,6.10
2023-03-05T08:18:57.811Z,6.80
2023-03-05T08:20:03.187Z,7.50
2023-03-05T08:21:05.984Z,5.80
2023-03-05T08:22:08.611Z,6.64
2023-03-05T08:23:10.944Z,7.30
2023-03-05T08:24:14.244Z,6.90
2023-03-05T08:25:17.289Z,7.20
2023-03-05T08:26:21.351Z,7.82
2023-03-05T08:27:24.011Z,7.50
2023-03-05T08:28:28.675Z,7.64
2023-03-05T08:29:32.631Z,7.00
2023-03-05T08:30:38.844Z,7.10
2023-03-05T08:31:45.169Z,7.50
2023-03-05T08:32:49.073Z,8.20
2023-03-05T08:33:54.051Z,7.10
2023-03-05T08:34:59.018Z,9.00
2023-03-05T08:36:02.766Z,10.00
2023-03-05T08:37:07.776Z,8.60
2023-03-05T08:38:10.981Z,8.10
2023-03-05T08:39:13.290Z,8.00
2023-03-05T08:40:19.212Z,6.30
2023-03-05T08:41:22.903Z,6.20
2023-03-05T08:42:25.658Z,5.60
2023-03-05T08:43:30.655Z,5.45
2023-03-05T08:44:33.309Z,5.40
2023-03-05T08:45:35.777Z,6.60
2023-03-05T08:46:39.613Z,6.70
2023-03-05T08:47:42.844Z,7.40
2023-03-05T08:48:45.563Z,5.60
2023-03-05T08:50:00.449Z,6.36
2023-03-05T08:51:16.143Z,6.20
2023-03-05T08:52:20.984Z,6.70
2023-03-05T08:53:23.835Z,7.90
2023-03-05T08:54:27.668Z,6.20
2023-03-05T08:56:50.334Z,6.30
2023-03-05T08:57:52.920Z,6.30
2023-03-05T08:58:55.217Z,7.10
2023-03-05T08:59:57.804Z,4.90
2023-03-05T09:01:01.596Z,7.20
2023-03-05T09:02:05.453Z,5.90
2023-03-05T09:03:08.573Z,5.30
2023-03-05T09:04:11.157Z,4.91
2023-03-05T09:05:16.173Z,5.60
2023-03-05T09:06:19.235Z,7.00
2023-03-05T09:07:22.212Z,7.27
2023-03-05T09:08:25.729Z,7.20
2023-03-05T09:09:34.335Z,4.80
2023-03-05T09:10:45.995Z,9.00
2023-03-05T09:11:49.596Z,6.80
2023-03-05T09:12:51.879Z,7.40
2023-03-05T09:13:54.296Z,5.00
2023-03-05T09:14:56.933Z,6.60
2023-03-05T09:16:01.211Z,6.80
2023-03-05T09:17:06.458Z,6.40
2023-03-05T09:18:09.257Z,7.60
2023-03-05T09:19:12.597Z,6.00
2023-03-05T09:20:25.226Z,6.70
2023-03-05T09:21:30.587Z,3.70
2023-03-05T09:22:34.119Z,7.00
2023-03-05T09:23:37.542Z,8.20
2023-03-05T09:24:44.058Z,7.70
2023-03-05T09:25:48.250Z,6.40
2023-03-05T09:26:52.555Z,6.20
2023-03-05T09:27:58.338Z,7.30
2023-03-05T09:29:03.117Z,9.00
2023-03-05T09:30:07.664Z,7.20
2023-03-05T09:31:10.737Z,6.45
2023-03-05T09:32:13.500Z,6.70
2023-03-05T09:33:17.754Z,8.00
2023-03-05T09:34:20.777Z,6.40
2023-03-05T09:35:23.219Z,6.80
2023-03-05T09:36:29.385Z,7.80
2023-03-05T09:37:32.845Z,6.70
2023-03-05T09:38:37.410Z,5.00
2023-03-05T09:39:42.168Z,6.80
2023-03-05T09:40:58.433Z,6.40
2023-03-05T09:42:18.078Z,5.20
2023-03-05T09:43:42.770Z,6.80
2023-03-05T09:44:56.024Z,6.10
2023-03-05T09:46:02.214Z,5.90
2023-03-05T09:47:35.098Z,5.30
2023-03-05T09:48:50.668Z,1.70
2023-03-05T09:50:25.294Z,5.10
2023-03-05T09:51:30.350Z,5.10
2023-03-05T09:52:43.498Z,6.70
2023-03-05T09:55:16.273Z,4.40
2023-03-05T09:56:34.071Z,5.00
2023-03-05T09:57:41.312Z,4.50
2023-03-05T09:58:56.812Z,4.20
2023-03-05T10:00:00.802Z,5.20
2023-03-05T10:01:16.452Z,6.60
2023-03-05T10:02:23.641Z,4.90
2023-03-05T10:03:50.833Z,4.90
2023-03-05T10:06:25.197Z,4.80
2023-03-05T10:07:30.253Z,6.70
2023-03-05T10:09:02.345Z,6.70
2023-03-05T10:10:26.382Z,6.30
2023-03-05T10:11:57.448Z,4.20
2023-03-05T10:13:01.336Z,3.30
2023-03-05T10:14:04.624Z,4.30
2023-03-05T10:15:15.875Z,5.70
2023-03-05T10:16:40.643Z,3.70
2023-03-05T10:19:20.353Z,6.20
2023-03-05T10:20:32.439Z,5.90
2023-03-05T10:21:44.601Z,4.90
2023-03-05T10:23:03.769Z,6.50
2023-03-05T10:24:19.687Z,9.30
2023-03-05T10:25:32.472Z,6.90
2023-03-05T10:26:55.826Z,6.70
2023-03-05T10:28:00.702Z,6.10
2023-03-05T10:29:19.259Z,6.20
2023-03-05T10:30:45.633Z,6.60
2023-03-05T10:32:01.508Z,4.00
2023-03-05T10:33:13.812Z,4.40
2023-03-05T10:34:25.783Z,3.70
2023-03-05T10:36:11.052Z,5.90
2023-03-05T10:37:25.698Z,4.70
2023-03-05T10:38:34.834Z,3.80
2023-03-05T10:39:50.227Z,9.00
2023-03-05T10:40:56.382Z,6.60
2023-03-05T10:44:10.996Z,7.10
2023-03-05T10:45:20.944Z,6.50
2023-03-05T10:46:29.084Z,6.00
2023-03-05T10:47:36.441Z,1.30
2023-03-05T10:48:55.162Z,5.80
2023-03-05T10:49:59.373Z,4.80
2023-03-05T10:52:30.989Z,5.50
2023-03-05T10:53:49.212Z,5.10
2023-03-05T10:54:51.478Z,3.10
2023-03-05T10:55:55.917Z,4.60
2023-03-05T10:57:14.077Z,4.60
2023-03-05T10:58:17.209Z,5.80
2023-03-05T10:59:20.803Z,5.10
2023-03-05T11:00:28.427Z,4.10
2023-03-05T11:01:32.685Z,5.20
2023-03-05T11:02:35.502Z,5.10
2023-03-05T11:03:49.761Z,5.10
2023-03-05T11:04:52.939Z,6.40
2023-03-05T11:06:00.707Z,4.90
2023-03-05T11:07:31.897Z,9.00
2023-03-05T11:08:35.171Z,5.90
2023-03-05T11:09:37.540Z,5.00
2023-03-05T11:10:40.551Z,4.40
2023-03-05T11:11:45.210Z,7.00
2023-03-05T11:12:48.817Z,5.40
2023-03-05T11:13:59.421Z,6.91
2023-03-05T11:15:08.718Z,5.10
2023-03-05T11:16:23.520Z,6.10
2023-03-05T11:17:39.250Z,6.10
2023-03-05T11:18:42.792Z,8.30
2023-03-05T11:19:45.646Z,7.30
2023-03-05T11:20:48.321Z,5.90
2023-03-05T11:22:10.358Z,5.60
2023-03-05T11:23:19.240Z,6.80
2023-03-05T11:24:23.371Z,6.80
2023-03-05T11:25:27.462Z,6.70
2023-03-05T11:26:30.146Z,6.10
2023-03-05T11:27:38.117Z,6.50
2023-03-05T11:28:53.409Z,5.00
2023-03-05T11:29:56.626Z,5.20
2023-03-05T11:31:19.162Z,4.82
2023-03-05T11:32:28.434Z,4.10
2023-03-05T11:33:34.045Z,3.10
2023-03-05T11:34:36.546Z,4.00
2023-03-05T11:35:42.713Z,5.20
2023-03-05T11:36:55.800Z,3.30
2023-03-05T11:38:03.449Z,4.90
2023-03-05T11:39:09.335Z,4.80
2023-03-05T11:40:20.654Z,4.30
2023-03-05T11:42:52.434Z,5.40
2023-03-05T11:43:54.988Z,2.00
2023-03-05T11:44:57.613Z,3.30
2023-03-05T11:46:03.703Z,3.30
2023-03-05T11:47:34.467Z,3.70
2023-03-05T11:48:39.104Z,4.70
2023-03-05T11:49:46.105Z,2.70
2023-03-05T11:50:51.135Z,4.00
2023-03-05T11:52:05.346Z,4.30
2023-03-05T11:53:16.721Z,3.70
2023-03-05T11:54:22.803Z,4.00
2023-03-05T11:55:28.485Z,4.10
2023-03-05T11:56:33.246Z,3.00
2023-03-05T11:57:52.598Z,2.00
2023-03-05T11:59:19.417Z,3.00
2023-03-05T12:00:27.142Z,2.70
2023-03-05T12:01:33.122Z,1.90
2023-03-05T12:02:37.490Z,2.70
2023-03-05T12:03:40.523Z,3.70
2023-03-05T12:04:45.681Z,2.20
2023-03-05T12:07:06.313Z,3.40
2023-03-05T12:08:15.295Z,1.90
2023-03-05T12:09:26.851Z,2.20
2023-03-05T12:10:30.083Z,3.10
2023-03-05T12:11:33.184Z,1.90
2023-03-05T12:13:09.496Z,3.30
2023-03-05T12:14:25.249Z,2.10
2023-03-05T12:15:57.670Z,2.10
2023-03-05T12:18:55.352Z,2.70
2023-03-05T12:20:09.127Z,3.20
2023-03-05T12:22:52.240Z,3.00
2023-03-05T12:24:01.463Z,2.20
2023-03-05T12:26:58.572Z,2.10
2023-03-05T12:28:02.020Z,3.30
2023-03-05T12:29:05.180Z,0.70
2023-03-05T12:31:38.638Z,3.00
2023-03-05T12:32:49.360Z,2.00
2023-03-05T12:33:52.838Z,2.10
2023-03-05T12:35:15.569Z,1.40
2023-03-05T12:36:25.811Z,2.00
2023-03-05T12:37:32.980Z,3.00
2023-03-05T12:38:38.024Z,2.60
2023-03-05T12:39:44.015Z,2.30
2023-03-05T12:40:47.335Z,3.40
2023-03-05T12:41:50.560Z,2.20
2023-03-05T12:42:56.677Z,3.00
2023-03-05T12:44:09.794Z,2.50
2023-03-05T12:45:16.478Z,3.00
2023-03-05T12:46:25.142Z,2.80
2023-03-05T12:47:27.443Z,2.10
2023-03-05T12:48:33.635Z,3.00
2023-03-05T12:50:52.095Z,3.40
2023-03-05T12:51:56.672Z,3.40
2023-03-05T12:53:18.008Z,2.50
2023-03-05T12:54:25.500Z,1.90
2023-03-05T12:55:35.737Z,2.20
2023-03-05T12:56:40.758Z,2.50
2023-03-05T12:57:45.410Z,1.70
2023-03-05T12:58:53.972Z,1.30
2023-03-05T13:02:57.783Z,2.00
2023-03-05T13:05:30.768Z,1.60
2023-03-05T13:06:35.397Z,2.00
2023-03-05T13:07:39.094Z,1.60
2023-03-05T13:08:42.908Z,2.30
2023-03-05T13:09:53.983Z,2.10
2023-03-05T13:11:11.355Z,2.00
2023-03-05T13:12:14.677Z,1.80
2023-03-05T13:13:21.490Z,1.90
2023-03-05T13:14:34.920Z,1.30
2023-03-05T13:15:37.539Z,1.00
2023-03-05T13:16:41.511Z,1.82
2023-03-05T13:17:55.359Z,2.30
2023-03-05T13:19:01.072Z,2.00
2023-03-05T13:20:29.320Z,1.20
2023-03-05T13:21:33.320Z,1.60
2023-03-05T13:22:38.336Z,1.20
2023-03-05T13:23:48.423Z,2.20
2023-03-05T13:25:15.282Z,0.90
2023-03-05T13:26:19.798Z,1.40
2023-03-05T13:27:30.644Z,2.90
2023-03-05T13:28:34.297Z,1.50
2023-03-05T13:29:37.625Z,1.70
2023-03-05T13:30:55.595Z,1.20
2023-03-05T13:32:00.102Z,1.50
2023-03-05T13:33:04.014Z,1.80
2023-03-05T13:35:25.746Z,0.90
2023-03-05T13:36:28.894Z,1.73
2023-03-05T13:37:33.670Z,1.20
2023-03-05T13:38:41.160Z,1.70
2023-03-05T13:41:29.544Z,1.70
2023-03-05T13:42:35.133Z,1.30
2023-03-05T13:45:22.189Z,1.20
2023-03-05T13:46:28.769Z,2.00
2023-03-05T13:47:36.486Z,1.50
2023-03-05T13:48:39.805Z,2.10
2023-03-05T13:49:47.774Z,1.90
2023-03-05T13:51:03.739Z,2.00
2023-03-05T13:53:28.572Z,2.00
2023-03-05T13:54:33.347Z,2.40
2023-03-05T13:55:36.666Z,2.20
2023-03-05T13:56:58.579Z,2.70
2023-03-05T13:58:02.159Z,1.70
2023-03-05T13:59:05.763Z,2.10
2023-03-05T14:01:51.835Z,1.20
2023-03-05T14:02:55.102Z,1.20
2023-03-05T14:04:11.302Z,1.80
2023-03-05T14:05:14.852Z,2.20
2023-03-05T14:06:20.649Z,1.60
2023-03-05T14:07:35.777Z,1.60
2023-03-05T14:08:40.308Z,1.20
2023-03-05T14:09:46.529Z,1.40
2023-03-05T14:10:49.404Z,1.50
2023-03-05T14:13:18.335Z,1.80
2023-03-05T14:14:21.433Z,0.80
2023-03-05T14:15:30.236Z,1.40
2023-03-05T14:16:33.393Z,1.80
2023-03-05T14:17:41.844Z,2.60
2023-03-05T14:20:32.059Z,2.20
2023-03-05T14:23:02.894Z,2.10
2023-03-05T14:24:20.963Z,2.30
2023-03-05T14:25:37.022Z,1.90
2023-03-05T14:26:44.425Z,2.20
2023-03-05T14:27:47.979Z,3.00
2023-03-05T14:29:03.195Z,2.80
2023-03-05T14:30:13.207Z,2.50
2023-03-05T14:31:16.962Z,2.90
2023-03-05T14:32:33.576Z,2.50
2023-03-05T14:33:36.406Z,3.60
2023-03-05T14:34:41.562Z,2.40
2023-03-05T14:35:48.136Z,2.00
2023-03-05T14:36:52.457Z,2.50
2023-03-05T14:37:56.538Z,3.40
2023-03-05T14:40:33.012Z,4.00
2023-03-05T14:41:52.001Z,3.00
2023-03-05T14:42:59.722Z,2.90
2023-03-05T14:44:20.050Z,2.00
2023-03-05T14:45:39.599Z,3.00
2023-03-05T14:46:43.743Z,1.00
2023-03-05T14:47:46.704Z,3.90
2023-03-05T14:50:18.324Z,3.70
2023-03-05T14:51:29.711Z,4.70
2023-03-05T14:52:34.456Z,3.90
2023-03-05T14:54:57.228Z,3.40
2023-03-05T14:55:59.626Z,3.10
2023-03-05T14:57:03.745Z,5.00
2023-03-05T14:58:19.483Z,3.70
2023-03-05T14:59:22.942Z,4.70
2023-03-05T15:00:27.254Z,5.30
2023-03-05T15:01:31.830Z,4.20
2023-03-05T15:02:34.980Z,3.80
2023-03-05T15:03:42.116Z,4.00
2023-03-05T15:05:59.553Z,3.80
2023-03-05T15:07:11.129Z,2.60
2023-03-05T15:08:21.602Z,5.10
2023-03-05T15:09:27.223Z,3.80
2023-03-05T15:10:30.545Z,2.50
2023-03-05T15:11:34.108Z,6.70
2023-03-05T15:12:50.438Z,6.00
2023-03-05T15:13:50.821Z,4.70
2023-03-05T15:14:55.850Z,6.10
2023-03-05T15:15:58.852Z,5.50
2023-03-05T15:17:02.053Z,4.50
2023-03-05T15:18:05.574Z,7.70
2023-03-05T15:19:15.168Z,6.50
2023-03-05T15:20:20.746Z,5.40
2023-03-05T15:21:24.732Z,6.70
2023-03-05T15:22:28.420Z,7.10